createdAt,value
2019-05-09T00:01:23.506Z,5.97
2019-05-09T00:03:53.800Z,5.30
2019-05-09T00:06:23.887Z,5.72
2019-05-09T00:08:53.218Z,5.05
2019-05-09T00:11:21.793Z,5.15
2019-05-09T00:13:50.242Z,5.50
2019-05-09T00:16:18.780Z,4.28
2019-05-09T00:18:47.213Z,4.72
2019-05-09T00:21:17.198Z,3.70
2019-05-09T00:23:45.641Z,3.93
2019-05-09T00:26:14.060Z,3.65
2019-05-09T00:28:44.269Z,3.33
2019-05-09T00:31:14.269Z,3.20
2019-05-09T00:33:47.798Z,3.40
2019-05-09T00:36:14.344Z,4.55
2019-05-09T00:38:44.566Z,3.83
2019-05-09T00:41:13.955Z,3.80
2019-05-09T00:43:44.308Z,3.80
2019-05-09T00:46:14.300Z,3.60
2019-05-09T00:48:47.333Z,3.57
2019-05-09T00:51:15.778Z,3.65
2019-05-09T00:53:44.518Z,3.75
2019-05-09T00:56:13.543Z,2.90
2019-05-09T00:58:44.047Z,3.50
2019-05-09T01:01:13.635Z,3.40
2019-05-09T01:03:43.217Z,3.33
2019-05-09T01:06:13.484Z,3.50
2019-05-09T01:08:44.059Z,3.27
2019-05-09T01:11:15.315Z,3.10
2019-05-09T01:13:43.453Z,3.02
2019-05-09T01:16:13.326Z,2.90
2019-05-09T01:18:43.783Z,3.05
2019-05-09T01:21:13.447Z,3.15
2019-05-09T01:23:43.667Z,2.95
2019-05-09T01:26:13.261Z,2.55
2019-05-09T01:28:44.061Z,3.60
2019-05-09T01:31:13.258Z,3.73
2019-05-09T01:33:49.290Z,2.72
2019-05-09T01:36:17.709Z,2.77
2019-05-09T01:38:46.141Z,3.12
2019-05-09T01:41:27.244Z,2.60
2019-05-09T01:43:44.650Z,2.70
2019-05-09T01:46:14.450Z,3.02
2019-05-09T01:48:43.303Z,2.95
2019-05-09T01:51:13.734Z,3.12
2019-05-09T01:53:43.795Z,2.67
2019-05-09T01:56:13.974Z,3.02
2019-05-09T01:58:43.130Z,2.45
2019-05-09T02:01:13.419Z,2.95
2019-05-09T02:03:43.720Z,3.37
2019-05-09T02:06:13.656Z,2.77
2019-05-09T02:08:43.778Z,2.98
2019-05-09T02:11:13.227Z,2.87
2019-05-09T02:13:44.082Z,2.60
2019-05-09T02:16:16.520Z,3.15
2019-05-09T02:18:55.488Z,3.12
2019-05-09T02:21:24.121Z,2.75
2019-05-09T02:23:53.730Z,3.27
2019-05-09T02:26:24.024Z,2.83
2019-05-09T02:28:53.882Z,2.80
2019-05-09T02:31:24.469Z,2.83
2019-05-09T02:33:54.190Z,2.90
2019-05-09T02:36:22.753Z,2.57
2019-05-09T02:38:51.197Z,3.00
2019-05-09T02:41:20.003Z,2.72
2019-05-09T02:43:49.866Z,3.12
2019-05-09T02:46:29.597Z,3.03
2019-05-09T02:48:59.415Z,3.15
2019-05-09T02:51:29.210Z,2.75
2019-05-09T02:53:58.708Z,3.87
2019-05-09T02:56:29.511Z,4.55
2019-05-09T02:59:09.275Z,4.37
2019-05-09T03:01:39.135Z,3.70
2019-05-09T03:04:08.438Z,3.47
2019-05-09T03:06:38.932Z,3.37
2019-05-09T03:09:09.025Z,3.35
2019-05-09T03:11:38.771Z,3.75
2019-05-09T03:14:09.182Z,3.45
2019-05-09T03:16:39.685Z,3.40
2019-05-09T03:19:09.085Z,3.17
2019-05-09T03:21:39.609Z,3.00
2019-05-09T03:24:09.777Z,2.60
2019-05-09T03:26:39.677Z,3.00
2019-05-09T03:29:21.721Z,2.90
2019-05-09T03:31:50.625Z,2.90
2019-05-09T03:34:19.704Z,3.02
2019-05-09T03:36:48.328Z,3.55
2019-05-09T03:39:18.515Z,3.20
2019-05-09T03:41:48.769Z,2.90
2019-05-09T03:44:17.887Z,4.60
2019-05-09T03:46:58.076Z,3.33
2019-05-09T03:49:28.350Z,3.70
2019-05-09T03:51:58.447Z,3.22
2019-05-09T03:54:28.310Z,3.58
2019-05-09T03:56:58.769Z,3.90
2019-05-09T03:59:27.857Z,3.60
2019-05-09T04:01:58.782Z,3.00
2019-05-09T04:04:28.127Z,3.35
2019-05-09T04:06:58.087Z,3.15
2019-05-09T04:09:27.339Z,2.87
2019-05-09T04:11:58.318Z,3.37
2019-05-09T04:14:28.223Z,3.02
2019-05-09T04:16:57.595Z,3.33
2019-05-09T04:19:27.580Z,3.30
2019-05-09T04:21:57.639Z,3.05
2019-05-09T04:24:28.004Z,3.20
2019-05-09T04:27:03.882Z,3.47
2019-05-09T04:29:32.320Z,3.30
2019-05-09T04:32:00.732Z,3.58
2019-05-09T04:34:29.182Z,3.40
2019-05-09T04:36:57.769Z,3.42
2019-05-09T04:39:28.352Z,3.10
2019-05-09T04:42:03.510Z,3.02
2019-05-09T04:44:40.858Z,4.12
2019-05-09T04:47:28.631Z,3.17
2019-05-09T04:49:58.372Z,3.30
2019-05-09T04:52:27.922Z,3.33
2019-05-09T04:54:57.623Z,2.85
2019-05-09T04:57:27.895Z,3.83
2019-05-09T04:59:57.507Z,3.17
2019-05-09T05:02:27.830Z,3.50
2019-05-09T05:04:58.402Z,3.77
2019-05-09T05:07:28.521Z,3.10
2019-05-09T05:09:57.627Z,2.70
2019-05-09T05:12:27.742Z,2.77
2019-05-09T05:14:57.994Z,3.15
2019-05-09T05:17:30.272Z,2.27
2019-05-09T05:19:57.997Z,2.97
2019-05-09T05:22:38.700Z,3.02
2019-05-09T05:25:09.266Z,3.05
2019-05-09T05:27:38.262Z,3.33
2019-05-09T05:30:07.624Z,3.12
2019-05-09T05:32:38.626Z,2.60
2019-05-09T05:35:21.388Z,3.00
2019-05-09T05:38:09.162Z,3.45
2019-05-09T05:40:45.279Z,2.98
2019-05-09T05:43:08.763Z,2.47
2019-05-09T05:45:39.160Z,3.05
2019-05-09T05:48:17.367Z,2.53
2019-05-09T05:50:44.962Z,3.20
2019-05-09T05:53:13.417Z,3.22
2019-05-09T05:55:42.445Z,3.25
2019-05-09T05:58:10.887Z,4.80
2019-05-09T06:00:40.206Z,4.33
2019-05-09T06:03:08.912Z,3.72
2019-05-09T06:05:38.317Z,3.50
2019-05-09T06:08:08.215Z,2.58
2019-05-09T06:10:37.872Z,2.58
2019-05-09T06:13:07.953Z,2.83
2019-05-09T06:15:37.880Z,2.45
2019-05-09T06:18:07.922Z,2.40
2019-05-09T06:20:38.579Z,2.30
2019-05-09T06:23:08.577Z,2.45
2019-05-09T06:25:39.345Z,1.90
2019-05-09T06:30:40.893Z,2.62
2019-05-09T06:33:08.753Z,3.07
2019-05-09T06:35:37.972Z,2.20
2019-05-09T06:38:07.902Z,1.82
2019-05-09T06:40:38.281Z,2.02
2019-05-09T06:43:20.182Z,1.67
2019-05-09T06:46:08.180Z,2.20
2019-05-09T06:48:37.980Z,2.12
2019-05-09T06:51:07.366Z,1.98
2019-05-09T06:53:37.860Z,2.37
2019-05-09T06:56:07.447Z,2.20
2019-05-09T06:58:43.030Z,1.90
2019-05-09T07:01:22.058Z,1.75
2019-05-09T07:04:00.955Z,2.50
2019-05-09T07:06:33.816Z,1.60
2019-05-09T07:09:18.853Z,2.45
2019-05-09T07:11:48.656Z,1.40
2019-05-09T07:14:38.351Z,2.23
2019-05-09T07:17:04.265Z,1.72
2019-05-09T07:19:32.683Z,2.15
2019-05-09T07:22:09.233Z,1.82
2019-05-09T07:25:02.989Z,1.65
2019-05-09T07:27:28.522Z,2.12
2019-05-09T07:29:58.993Z,1.85
2019-05-09T07:32:29.012Z,2.50
2019-05-09T07:35:01.806Z,1.70
2019-05-09T07:37:30.239Z,2.37
2019-05-09T07:39:58.664Z,1.70
2019-05-09T07:42:28.482Z,1.95
2019-05-09T07:44:59.076Z,2.17
2019-05-09T07:47:28.223Z,1.90
2019-05-09T07:49:58.570Z,1.75
2019-05-09T07:52:28.384Z,1.82
2019-05-09T07:54:58.068Z,1.70
2019-05-09T07:57:28.579Z,2.17
2019-05-09T07:59:58.419Z,2.10
2019-05-09T08:02:28.196Z,1.82
2019-05-09T08:04:57.894Z,1.42
2019-05-09T08:07:33.207Z,1.95
2019-05-09T08:10:01.622Z,2.40
2019-05-09T08:12:30.056Z,1.60
2019-05-09T08:15:10.269Z,2.12
2019-05-09T08:17:28.793Z,2.37
2019-05-09T08:19:58.332Z,2.60
2019-05-09T08:22:31.834Z,1.92
2019-05-09T08:25:00.479Z,1.87
2019-05-09T08:27:30.334Z,1.77
2019-05-09T08:29:58.937Z,1.77
2019-05-09T08:32:28.643Z,1.65
2019-05-09T08:34:57.753Z,1.40
2019-05-09T08:37:28.370Z,1.75
2019-05-09T08:39:57.769Z,1.82
2019-05-09T08:42:26.412Z,2.00
2019-05-09T08:44:54.869Z,1.70
2019-05-09T08:47:23.302Z,1.42
2019-05-09T08:50:09.651Z,1.82
2019-05-09T08:52:38.037Z,1.35
2019-05-09T08:55:08.460Z,1.80
2019-05-09T08:57:37.572Z,1.67
2019-05-09T09:00:08.177Z,1.80
2019-05-09T09:02:37.678Z,2.35
2019-05-09T09:05:08.672Z,1.30
2019-05-09T09:07:38.048Z,2.02
2019-05-09T09:10:08.421Z,1.87
2019-05-09T09:12:38.438Z,2.12
2019-05-09T09:15:07.879Z,1.55
2019-05-09T09:17:38.633Z,1.70
2019-05-09T09:20:07.818Z,1.65
2019-05-09T09:22:37.715Z,2.02
2019-05-09T09:25:31.621Z,1.97
2019-05-09T09:28:00.100Z,1.65
2019-05-09T09:30:29.510Z,2.02
2019-05-09T09:32:58.813Z,1.80
2019-05-09T09:35:27.908Z,1.85
2019-05-09T09:37:58.028Z,1.95
2019-05-09T09:40:27.964Z,2.00
2019-05-09T09:45:31.433Z,2.20
2019-05-09T09:47:59.898Z,1.50
2019-05-09T09:50:28.337Z,1.82
2019-05-09T09:55:31.449Z,1.70
2019-05-09T09:58:19.338Z,1.98
2019-05-09T10:00:49.324Z,2.02
2019-05-09T10:03:37.140Z,2.30
2019-05-09T10:06:05.558Z,1.72
2019-05-09T10:08:33.986Z,2.15
2019-05-09T10:11:02.405Z,1.40
2019-05-09T10:13:30.854Z,1.82
2019-05-09T10:16:26.496Z,2.17
2019-05-09T10:18:53.277Z,2.12
2019-05-09T10:21:23.285Z,1.80
2019-05-09T10:23:51.715Z,1.50
2019-05-09T10:26:20.149Z,2.33
2019-05-09T10:28:48.729Z,1.92
2019-05-09T10:31:17.625Z,1.75
2019-05-09T10:33:48.036Z,1.87
2019-05-09T10:36:16.239Z,1.60
2019-05-09T10:38:44.690Z,2.22
2019-05-09T10:44:08.310Z,2.00
2019-05-09T10:46:53.703Z,1.75
2019-05-09T10:49:14.750Z,1.98
2019-05-09T10:51:43.232Z,1.90
2019-05-09T10:54:11.702Z,2.37
2019-05-09T10:56:40.206Z,2.08
2019-05-09T10:59:08.640Z,2.25
2019-05-09T11:01:38.128Z,1.47
2019-05-09T11:04:08.138Z,1.70
2019-05-09T11:06:38.343Z,2.35
2019-05-09T11:11:51.460Z,1.80
2019-05-09T11:14:33.499Z,1.65
2019-05-09T11:17:06.948Z,1.60
2019-05-09T11:19:21.715Z,2.10
2019-05-09T11:21:50.130Z,1.60
2019-05-09T11:24:42.959Z,1.80
2019-05-09T11:27:01.045Z,1.60
2019-05-09T11:29:29.736Z,1.67
2019-05-09T11:31:58.691Z,1.57
2019-05-09T11:34:27.500Z,1.72
2019-05-09T11:36:57.978Z,1.50
2019-05-09T11:41:58.504Z,1.67
2019-05-09T11:44:27.581Z,1.45
2019-05-09T11:46:58.098Z,2.05
2019-05-09T11:49:26.067Z,1.45
2019-05-09T11:51:54.481Z,1.50
2019-05-09T11:54:22.917Z,1.65
2019-05-09T11:56:51.339Z,1.70
2019-05-09T11:59:19.784Z,1.70
2019-05-09T12:01:48.414Z,1.80
2019-05-09T12:04:18.773Z,1.50
2019-05-09T12:06:49.137Z,2.25
2019-05-09T12:09:17.076Z,1.85
2019-05-09T12:11:48.023Z,1.90
2019-05-09T12:14:15.584Z,1.65
2019-05-09T12:16:44.024Z,2.45
2019-05-09T12:19:12.437Z,1.67
2019-05-09T12:21:47.398Z,2.27
2019-05-09T12:24:10.945Z,2.45
2019-05-09T12:26:39.411Z,2.35
2019-05-09T12:29:08.708Z,1.90
2019-05-09T12:31:38.696Z,2.12
2019-05-09T12:34:09.156Z,2.35
2019-05-09T12:36:39.834Z,1.82
2019-05-09T12:39:08.683Z,1.70
2019-05-09T12:41:38.748Z,1.70
2019-05-09T12:44:08.815Z,1.90
2019-05-09T12:46:41.288Z,2.10
2019-05-09T12:49:12.562Z,1.95
2019-05-09T12:51:41.674Z,2.00
2019-05-09T12:54:10.124Z,2.05
2019-05-09T12:56:41.113Z,1.80
2019-05-09T12:59:09.558Z,1.77
2019-05-09T13:01:41.347Z,1.80
2019-05-09T13:04:13.300Z,1.80
2019-05-09T13:06:41.724Z,2.40
2019-05-09T13:09:10.150Z,2.22
2019-05-09T13:11:39.258Z,2.25
2019-05-09T13:14:10.193Z,2.00
2019-05-09T13:19:24.756Z,1.67
2019-05-09T13:21:58.597Z,1.80
2019-05-09T13:24:30.325Z,3.12
2019-05-09T13:26:58.506Z,3.05
2019-05-09T13:29:26.905Z,2.10
2019-05-09T13:31:57.562Z,2.02
2019-05-09T13:34:25.409Z,2.30
2019-05-09T13:36:58.934Z,2.12
2019-05-09T13:39:27.816Z,2.30
2019-05-09T13:41:58.179Z,1.90
2019-05-09T13:46:55.397Z,1.95
2019-05-09T13:49:23.811Z,1.40
2019-05-09T13:52:00.233Z,1.87
2019-05-09T13:54:22.335Z,1.70
2019-05-09T13:56:57.558Z,1.50
2019-05-09T13:59:21.009Z,1.80
2019-05-09T14:01:49.516Z,2.45
2019-05-09T14:04:17.942Z,1.60
2019-05-09T14:06:48.519Z,1.90
2019-05-09T14:09:19.622Z,1.72
2019-05-09T14:11:47.962Z,2.22
2019-05-09T14:14:17.796Z,2.20
2019-05-09T14:16:47.884Z,1.90
2019-05-09T14:19:34.483Z,1.83
2019-05-09T14:21:48.211Z,1.90
2019-05-09T14:24:19.188Z,1.80
2019-05-09T14:26:48.008Z,1.92
2019-05-09T14:29:20.463Z,1.92
2019-05-09T14:31:46.758Z,1.55
2019-05-09T14:34:15.192Z,1.62
2019-05-09T14:36:45.573Z,2.52
2019-05-09T14:39:13.699Z,1.62
2019-05-09T14:41:42.122Z,1.77
2019-05-09T14:44:10.572Z,1.87
2019-05-09T14:46:39.390Z,2.10
2019-05-09T14:49:08.081Z,1.98
2019-05-09T14:51:38.031Z,1.98
2019-05-09T14:54:08.300Z,1.40
2019-05-09T14:56:42.150Z,1.60
2019-05-09T14:59:14.221Z,2.65
2019-05-09T15:01:43.936Z,2.00
2019-05-09T15:04:12.822Z,2.10
2019-05-09T15:06:44.941Z,1.32
2019-05-09T15:09:18.796Z,2.10
2019-05-09T15:11:48.566Z,2.05
2019-05-09T15:14:18.143Z,1.62
2019-05-09T15:16:48.514Z,2.45
2019-05-09T15:19:18.037Z,1.70
2019-05-09T15:21:48.795Z,1.93
2019-05-09T15:24:19.218Z,1.98
2019-05-09T15:26:47.924Z,2.05
2019-05-09T15:29:16.771Z,2.40
2019-05-09T15:31:52.453Z,1.90
2019-05-09T15:34:15.321Z,1.90
2019-05-09T15:36:43.750Z,3.00
2019-05-09T15:39:12.180Z,1.90
2019-05-09T15:41:40.595Z,2.27
2019-05-09T15:44:09.048Z,2.55
2019-05-09T15:46:41.824Z,1.90
2019-05-09T15:49:10.259Z,1.80
2019-05-09T15:51:38.720Z,2.37
2019-05-09T15:54:08.321Z,1.55
2019-05-09T15:56:38.408Z,2.12
2019-05-09T15:59:07.102Z,2.03
2019-05-09T16:01:35.518Z,1.65
2019-05-09T16:04:03.961Z,1.55
2019-05-09T16:06:33.146Z,1.67
2019-05-09T16:09:02.150Z,1.72
2019-05-09T16:11:30.584Z,2.25
2019-05-09T16:13:59.007Z,2.00
2019-05-09T16:16:28.623Z,2.20
2019-05-09T16:18:58.290Z,2.13
2019-05-09T16:24:01.062Z,2.37
2019-05-09T16:26:29.527Z,2.08
2019-05-09T16:28:58.212Z,2.12
2019-05-09T16:31:29.563Z,2.02
2019-05-09T16:33:59.846Z,2.85
2019-05-09T16:36:28.473Z,2.02
2019-05-09T16:38:58.558Z,1.95
2019-05-09T16:41:28.036Z,1.92
2019-05-09T16:43:58.355Z,2.67
2019-05-09T16:46:29.841Z,1.92
2019-05-09T16:48:58.311Z,2.00
2019-05-09T16:51:28.537Z,2.00
2019-05-09T16:53:58.423Z,2.27
2019-05-09T16:56:28.708Z,2.08
2019-05-09T16:58:57.800Z,2.15
2019-05-09T17:01:28.432Z,2.30
2019-05-09T17:03:57.507Z,2.05
2019-05-09T17:06:27.512Z,1.85
2019-05-09T17:09:00.137Z,1.73
2019-05-09T17:11:29.728Z,2.10
2019-05-09T17:13:58.502Z,2.02
2019-05-09T17:16:28.530Z,1.90
2019-05-09T17:18:59.002Z,2.22
2019-05-09T17:21:40.857Z,1.98
2019-05-09T17:24:13.585Z,2.70
2019-05-09T17:26:42.805Z,3.00
2019-05-09T17:29:11.246Z,2.15
2019-05-09T17:31:39.654Z,2.80
2019-05-09T17:34:09.666Z,2.55
2019-05-09T17:36:38.572Z,2.40
2019-05-09T17:39:07.941Z,3.05
2019-05-09T17:41:37.930Z,2.30
2019-05-09T17:44:07.692Z,2.87
2019-05-09T17:46:38.491Z,2.70
2019-05-09T17:49:08.262Z,2.25
2019-05-09T17:51:36.912Z,2.37
2019-05-09T17:54:07.826Z,2.22
2019-05-09T17:56:37.683Z,2.93
2019-05-09T17:59:05.485Z,2.45
2019-05-09T18:01:33.940Z,2.33
2019-05-09T18:04:03.342Z,3.12
2019-05-09T18:06:31.776Z,2.40
2019-05-09T18:12:02.234Z,2.30
2019-05-09T18:14:30.672Z,3.00
2019-05-09T18:16:59.231Z,2.42
2019-05-09T18:19:29.341Z,2.85
2019-05-09T18:21:58.055Z,2.80
2019-05-09T18:24:28.615Z,2.62
2019-05-09T18:26:58.184Z,2.87
2019-05-09T18:29:27.436Z,2.40
2019-05-09T18:32:03.571Z,2.85
2019-05-09T18:34:32.333Z,2.55
2019-05-09T18:37:05.002Z,2.30
2019-05-09T18:39:37.450Z,3.12
2019-05-09T18:42:05.772Z,2.55
2019-05-09T18:44:34.269Z,2.60
2019-05-09T18:47:02.678Z,3.47
2019-05-09T18:49:31.149Z,3.00
2019-05-09T18:52:03.924Z,4.47
2019-05-09T18:54:29.659Z,4.65
2019-05-09T18:56:58.096Z,5.55
2019-05-09T18:59:26.583Z,5.53
2019-05-09T19:01:54.984Z,4.50
2019-05-09T19:04:23.460Z,4.22
2019-05-09T19:06:51.871Z,3.62
2019-05-09T19:09:20.318Z,3.25
2019-05-09T19:11:48.867Z,3.02
2019-05-09T19:14:19.219Z,2.75
2019-05-09T19:16:49.217Z,3.47
2019-05-09T19:19:25.197Z,2.60
2019-05-09T19:21:55.192Z,2.80
2019-05-09T19:24:24.632Z,2.70
2019-05-09T19:26:53.049Z,3.45
2019-05-09T19:29:21.552Z,2.58
2019-05-09T19:31:49.955Z,2.33
2019-05-09T19:34:18.406Z,2.77
2019-05-09T19:36:46.826Z,2.47
2019-05-09T19:39:17.058Z,2.60
2019-05-09T19:41:45.337Z,2.53
2019-05-09T19:44:13.759Z,2.22
2019-05-09T19:46:42.188Z,2.75
2019-05-09T19:49:10.612Z,2.62
2019-05-09T19:51:58.458Z,2.55
2019-05-09T19:54:26.882Z,2.62
2019-05-09T19:56:55.338Z,2.77
2019-05-09T19:59:23.739Z,2.75
2019-05-09T20:01:52.187Z,2.83
2019-05-09T20:04:20.618Z,2.50
2019-05-09T20:06:49.091Z,2.52
2019-05-09T20:09:28.089Z,2.67
2019-05-09T20:12:10.383Z,2.30
2019-05-09T20:14:43.607Z,2.10
2019-05-09T20:17:12.052Z,2.27
2019-05-09T20:19:40.473Z,2.30
2019-05-09T20:22:08.912Z,2.45
2019-05-09T20:24:37.336Z,2.52
2019-05-09T20:27:05.757Z,2.60
2019-05-09T20:29:34.204Z,3.02
2019-05-09T20:32:02.655Z,2.90
2019-05-09T20:34:31.081Z,2.22
2019-05-09T20:36:59.774Z,2.35
2019-05-09T20:39:30.929Z,3.22
2019-05-09T20:41:58.681Z,2.50
2019-05-09T20:44:27.367Z,1.98
2019-05-09T20:46:55.999Z,2.80
2019-05-09T20:49:24.609Z,2.72
2019-05-09T20:51:53.296Z,2.02
2019-05-09T20:54:21.972Z,2.33
2019-05-09T20:56:50.621Z,2.83
2019-05-09T20:59:19.231Z,2.25
2019-05-09T21:01:47.954Z,2.45
2019-05-09T21:04:16.623Z,1.90
2019-05-09T21:06:45.253Z,2.58
2019-05-09T21:09:13.872Z,2.10
2019-05-09T21:11:42.519Z,1.85
2019-05-09T21:14:11.120Z,2.10
2019-05-09T21:16:39.774Z,2.08
2019-05-09T21:19:08.372Z,1.92
2019-05-09T21:21:37.009Z,2.20
2019-05-09T21:24:05.599Z,2.45
2019-05-09T21:26:34.255Z,1.77
2019-05-09T21:29:02.872Z,2.00
2019-05-09T21:31:31.531Z,2.25
2019-05-09T21:34:00.125Z,1.92
2019-05-09T21:36:28.585Z,2.55
2019-05-09T21:38:59.757Z,2.40
2019-05-09T21:41:28.205Z,2.72
2019-05-09T21:43:56.632Z,2.70
2019-05-09T21:46:25.065Z,2.72
2019-05-09T21:48:53.524Z,2.50
2019-05-09T21:51:21.940Z,2.60
2019-05-09T21:53:50.420Z,2.60
2019-05-09T21:56:18.805Z,2.92
2019-05-09T21:58:47.264Z,2.87
2019-05-09T22:01:16.601Z,2.72
2019-05-09T22:03:47.918Z,2.17
2019-05-09T22:06:16.325Z,2.72
2019-05-09T22:08:44.773Z,2.30
2019-05-09T22:11:13.192Z,2.10
2019-05-09T22:13:41.655Z,2.47
2019-05-09T22:16:29.525Z,2.60
2019-05-09T22:18:57.981Z,2.47
2019-05-09T22:21:26.401Z,2.72
2019-05-09T22:23:56.762Z,2.92
2019-05-09T22:26:24.955Z,3.33
2019-05-09T22:28:53.371Z,3.15
2019-05-09T22:31:21.864Z,3.10
2019-05-09T22:33:50.278Z,3.65
2019-05-09T22:36:18.751Z,3.02
2019-05-09T22:38:47.170Z,3.50
2019-05-09T22:41:15.640Z,3.90
2019-05-09T22:43:44.064Z,3.40
2019-05-09T22:46:12.537Z,3.87
2019-05-09T22:48:40.938Z,4.00
2019-05-09T22:51:09.377Z,3.92
2019-05-09T22:53:37.812Z,3.85
2019-05-09T22:56:25.617Z,3.22
2019-05-09T22:58:54.044Z,3.50
2019-05-09T23:01:22.493Z,4.00
2019-05-09T23:04:13.895Z,4.47
2019-05-09T23:06:48.193Z,5.35
2019-05-09T23:09:16.635Z,5.65
2019-05-09T23:11:45.068Z,5.33
2019-05-09T23:14:13.485Z,4.72
2019-05-09T23:16:41.920Z,4.67
2019-05-09T23:19:10.365Z,4.85
2019-05-09T23:21:38.788Z,4.90
2019-05-09T23:24:08.801Z,5.00
2019-05-09T23:26:37.237Z,4.97
2019-05-09T23:29:05.750Z,4.22
2019-05-09T23:31:35.774Z,4.25
2019-05-09T23:34:04.212Z,4.73
2019-05-09T23:36:32.628Z,4.62
2019-05-09T23:39:08.916Z,4.58
2019-05-09T23:41:37.332Z,4.03
2019-05-09T23:44:05.778Z,3.98
2019-05-09T23:46:34.195Z,4.30
2019-05-09T23:49:02.632Z,3.95
2019-05-09T23:51:49.651Z,4.05
2019-05-09T23:54:45.975Z,3.72
2019-05-09T23:57:24.153Z,3.70
